Time;durP1;ratioP1;P1;durP2;ratioP2;P2;SDS_P1;SDS_P2;PMS_P1;PMS_P2;Temp;Humidity;BMP_temperature;BMP_pressure;BME280_temperature;BME280_humidity;BME280_pressure;Samples;Min_cycle;Max_cycle;Signal;HPM_P1;HPM_P2
2021/06/05 00:02:24;;;;;;;7.72;0.77;;;16.80;99.90;;;;;;6214920;23;19997;-77
2021/06/05 00:04:56;;;;;;;10.13;2.35;;;16.70;99.90;;;;;;6212481;23;20334;-78
2021/06/05 00:07:23;;;;;;;2.30;0.60;;;16.70;99.90;;;;;;6214384;23;19993;-78
2021/06/05 00:09:49;;;;;;;3.25;0.75;;;16.70;99.90;;;;;;6214186;23;20008;-77
2021/06/05 00:12:19;;;;;;;1.85;1.10;;;16.80;99.90;;;;;;6212797;23;20004;-77
2021/06/05 00:14:45;;;;;;;3.03;0.75;;;16.70;99.90;;;;;;6214508;23;20004;-78
2021/06/05 00:17:11;;;;;;;0.90;0.90;;;16.50;99.90;;;;;;6213843;23;20334;-78
2021/06/05 00:19:37;;;;;;;1.52;0.80;;;16.50;99.90;;;;;;6214237;23;20004;-77
2021/06/05 00:22:03;;;;;;;1.85;1.67;;;16.30;99.90;;;;;;6214426;23;19997;-77
2021/06/05 00:24:29;;;;;;;0.90;0.68;;;16.30;99.90;;;;;;6214767;23;19993;-78
2021/06/05 00:26:55;;;;;;;1.92;0.57;;;16.10;99.90;;;;;;6214273;23;19992;-78
2021/06/05 00:29:21;;;;;;;0.82;0.50;;;16.10;99.90;;;;;;6214449;23;20067;-77
2021/06/05 00:31:47;;;;;;;4.95;0.65;;;16.20;99.90;;;;;;6212910;23;20000;-78
2021/06/05 00:34:13;;;;;;;1.02;0.80;;;16.10;99.90;;;;;;6214125;23;20446;-77
2021/06/05 00:36:39;;;;;;;2.15;0.73;;;15.80;99.90;;;;;;6214341;23;20023;-77
2021/06/05 00:39:06;;;;;;;2.78;0.95;;;15.70;99.90;;;;;;6212585;23;20008;-78
2021/06/05 00:41:32;;;;;;;4.22;0.73;;;15.70;99.90;;;;;;6212696;23;20454;-78
2021/06/05 00:44:00;;;;;;;2.58;0.70;;;15.80;99.90;;;;;;6214112;23;19999;-78
2021/06/05 00:46:29;;;;;;;1.20;0.75;;;15.80;99.90;;;;;;6214163;23;20000;-78
2021/06/05 00:48:56;;;;;;;1.42;0.80;;;15.80;99.90;;;;;;6213935;23;19997;-78
2021/06/05 00:51:31;;;;;;;2.97;0.70;;;15.90;99.90;;;;;;6213926;23;20052;-78
2021/06/05 00:53:59;;;;;;;0.70;0.70;;;15.90;99.90;;;;;;6214362;23;20004;-77
2021/06/05 00:56:25;;;;;;;1.33;0.85;;;15.90;99.90;;;;;;6214460;23;20003;-78
2021/06/05 00:58:51;;;;;;;2.30;0.70;;;15.90;99.90;;;;;;6214500;23;20401;-77
2021/06/05 01:01:23;;;;;;;4.90;1.00;;;15.80;99.90;;;;;;6214092;23;20338;-77
2021/06/05 01:03:51;;;;;;;2.72;0.90;;;15.80;99.90;;;;;;6214025;23;20381;-78
2021/06/05 01:06:22;;;;;;;2.88;1.05;;;15.80;99.90;;;;;;6213602;23;19996;-78
2021/06/05 01:09:29;;;;;;;3.80;1.00;;;15.70;99.90;;;;;;6212314;23;20001;-77
2021/06/05 01:12:32;;;;;;;2.38;1.02;;;15.70;99.90;;;;;;6093247;23;20086;-78
2021/06/05 01:15:13;;;;;;;3.10;0.98;;;15.60;99.90;;;;;;6093406;23;20009;-77
2021/06/05 01:17:43;;;;;;;4.00;1.80;;;15.60;99.90;;;;;;6092614;23;20013;-78
2021/06/05 01:20:16;;;;;;;5.15;1.20;;;15.60;99.90;;;;;;6093429;23;20003;-78
2021/06/05 01:23:03;;;;;;;5.05;0.80;;;15.60;99.90;;;;;;6092542;23;20054;-78
2021/06/05 01:25:43;;;;;;;3.25;1.00;;;15.50;99.90;;;;;;6092863;23;20086;-78
2021/06/05 01:28:18;;;;;;;4.20;1.23;;;15.60;99.90;;;;;;6068933;23;19998;-77
2021/06/05 01:30:48;;;;;;;1.23;1.00;;;15.50;99.90;;;;;;6092900;23;20007;-78
2021/06/05 01:33:16;;;;;;;;;;;15.50;99.90;;;;;;6095360;23;20010;-78
2021/06/05 01:35:43;;;;;;;2.70;0.80;;;15.50;99.90;;;;;;6093445;23;20394;-78
2021/06/05 01:38:14;;;;;;;0.80;0.80;;;15.50;99.90;;;;;;6092828;23;20009;-78
2021/06/05 01:40:41;;;;;;;5.28;1.00;;;15.10;99.90;;;;;;6093224;23;20515;-77
2021/06/05 01:43:09;;;;;;;3.05;0.80;;;15.10;99.90;;;;;;6069001;23;20448;-77
2021/06/05 01:45:39;;;;;;;2.08;0.80;;;15.10;99.90;;;;;;6092574;23;20006;-77
2021/06/05 01:48:07;;;;;;;1.60;0.93;;;14.90;99.90;;;;;;6191595;23;19997;-77
2021/06/05 01:50:36;;;;;;;3.88;0.82;;;15.00;99.90;;;;;;6215884;23;20043;-78
2021/06/05 01:53:09;;;;;;;0.75;0.75;;;15.00;99.90;;;;;;6216117;23;20004;-77
2021/06/05 01:55:42;;;;;;;2.55;0.73;;;15.00;99.90;;;;;;6215515;23;20000;-78
2021/06/05 01:58:13;;;;;;;2.72;2.35;;;14.90;99.90;;;;;;6215976;23;20007;-78
2021/06/05 02:00:42;;;;;;;8.27;2.20;;;14.90;99.90;;;;;;6215093;23;20004;-78
2021/06/05 02:03:09;;;;;;;1.50;0.68;;;14.90;99.90;;;;;;6214624;23;19997;-78
2021/06/05 02:05:35;;;;;;;1.10;0.70;;;14.80;99.90;;;;;;6216250;23;20019;-77
2021/06/05 02:08:01;;;;;;;3.30;0.70;;;14.80;99.90;;;;;;6215698;23;20434;-77
2021/06/05 02:10:29;;;;;;;1.67;0.70;;;14.80;99.90;;;;;;6215521;23;20008;-77
2021/06/05 02:12:55;;;;;;;1.95;1.13;;;14.90;99.90;;;;;;6215479;23;20047;-78
2021/06/05 02:15:39;;;;;;;3.63;1.05;;;14.80;99.90;;;;;;6215457;23;20001;-78
2021/06/05 02:18:09;;;;;;;2.00;0.70;;;14.70;99.90;;;;;;6215916;23;20311;-78
2021/06/05 02:20:40;;;;;;;;;;;14.60;99.90;;;;;;6214500;23;20343;-78
2021/06/05 02:23:11;;;;;;;1.77;0.80;;;14.70;99.90;;;;;;6216109;23;19900;-78
2021/06/05 02:25:38;;;;;;;2.92;1.92;;;14.60;99.90;;;;;;6215445;23;20446;-78
2021/06/05 02:28:05;;;;;;;3.92;0.95;;;14.60;99.90;;;;;;6215619;23;20470;-78
2021/06/05 02:30:31;;;;;;;2.10;0.70;;;14.40;99.90;;;;;;6215502;23;20004;-78
2021/06/05 02:32:58;;;;;;;3.03;0.77;;;14.40;99.90;;;;;;6215382;23;20024;-78
2021/06/05 02:35:35;;;;;;;4.68;0.63;;;14.30;99.90;;;;;;6215695;23;20008;-77
2021/06/05 02:38:01;;;;;;;0.85;0.60;;;14.30;99.90;;;;;;6215425;23;20078;-77
2021/06/05 02:40:29;;;;;;;1.33;0.73;;;14.40;99.90;;;;;;6215343;23;19997;-78
2021/06/05 02:42:58;;;;;;;6.40;0.80;;;14.50;99.90;;;;;;6215482;23;20020;-77
2021/06/05 02:45:35;;;;;;;1.98;0.60;;;14.50;99.90;;;;;;6215022;23;20023;-77
2021/06/05 02:48:02;;;;;;;1.23;0.50;;;14.50;99.90;;;;;;6215218;23;19997;-77
2021/06/05 02:50:35;;;;;;;1.60;0.40;;;14.60;99.90;;;;;;6213866;23;20022;-77
2021/06/05 02:53:01;;;;;;;0.55;0.55;;;14.60;99.90;;;;;;6213907;23;20008;-77
2021/06/05 02:55:27;;;;;;;1.30;0.80;;;14.60;99.90;;;;;;6215424;23;20035;-77
2021/06/05 02:57:53;;;;;;;3.00;0.65;;;14.60;99.90;;;;;;6215052;23;20378;-77
2021/06/05 03:00:22;;;;;;;2.88;0.57;;;14.50;99.90;;;;;;6215217;23;20024;-78
2021/06/05 03:02:48;;;;;;;4.43;1.02;;;14.50;99.90;;;;;;6213725;23;20312;-77
2021/06/05 03:05:14;;;;;;;2.63;1.40;;;14.30;99.90;;;;;;6215474;23;20055;-78
2021/06/05 03:07:40;;;;;;;4.55;0.57;;;14.20;99.90;;;;;;6214667;23;20442;-78
2021/06/05 03:10:07;;;;;;;3.13;0.75;;;14.20;99.90;;;;;;6215280;23;20024;-77
2021/06/05 03:12:33;;;;;;;2.60;0.82;;;14.30;99.90;;;;;;6214880;23;20000;-77
2021/06/05 03:14:59;;;;;;;0.82;0.70;;;14.40;99.90;;;;;;6215884;23;19997;-77
2021/06/05 03:17:28;;;;;;;2.95;0.60;;;14.40;99.90;;;;;;6215206;23;19997;-77
2021/06/05 03:19:54;;;;;;;0.52;0.43;;;14.50;99.90;;;;;;6215181;23;20003;-77
2021/06/05 03:22:21;;;;;;;3.22;0.70;;;14.40;99.90;;;;;;6215372;23;20004;-77
2021/06/05 03:24:47;;;;;;;0.90;0.70;;;14.30;99.90;;;;;;6214634;23;20435;-77
2021/06/05 03:27:13;;;;;;;1.48;0.55;;;14.30;99.90;;;;;;6215090;23;20307;-77
2021/06/05 03:29:38;;;;;;;1.13;0.75;;;14.30;99.90;;;;;;6214801;23;20080;-77
2021/06/05 03:32:05;;;;;;;2.03;1.52;;;14.30;99.90;;;;;;6214796;23;20331;-78
2021/06/05 03:34:30;;;;;;;0.77;0.50;;;14.40;99.90;;;;;;6215202;23;19996;-77
2021/06/05 03:36:57;;;;;;;4.80;0.95;;;14.40;99.90;;;;;;6215233;23;20007;-77
2021/06/05 03:39:23;;;;;;;0.75;0.50;;;14.50;99.90;;;;;;6214931;23;20000;-77
2021/06/05 03:41:49;;;;;;;1.55;0.68;;;14.40;99.90;;;;;;6214685;23;20062;-77
2021/06/05 03:44:15;;;;;;;0.88;0.70;;;14.40;99.90;;;;;;6214788;23;20001;-77
2021/06/05 03:46:41;;;;;;;1.08;0.70;;;14.40;99.90;;;;;;6212944;23;19997;-77
2021/06/05 03:49:09;;;;;;;2.15;0.80;;;14.50;99.90;;;;;;6215236;23;19996;-77
2021/06/05 03:51:35;;;;;;;2.25;0.75;;;14.40;99.90;;;;;;6214290;23;20480;-78
2021/06/05 03:54:01;;;;;;;1.50;0.90;;;14.30;99.90;;;;;;6214814;23;20000;-77
2021/06/05 03:56:27;;;;;;;1.23;0.90;;;14.40;99.90;;;;;;6214056;23;20464;-77
2021/06/05 03:58:53;;;;;;;1.15;1.08;;;14.40;99.90;;;;;;6214865;23;20001;-78
2021/06/05 04:01:26;;;;;;;5.07;0.90;;;14.40;99.90;;;;;;6215080;23;20027;-78
2021/06/05 04:03:52;;;;;;;1.77;1.00;;;14.40;99.90;;;;;;6214118;23;20024;-77
2021/06/05 04:06:20;;;;;;;0.93;0.60;;;14.50;99.90;;;;;;6214759;23;20377;-78
2021/06/05 04:08:47;;;;;;;2.05;0.93;;;14.50;99.90;;;;;;6212979;23;20399;-77
2021/06/05 04:11:12;;;;;;;1.83;0.77;;;14.50;99.90;;;;;;6214393;23;20007;-77
2021/06/05 04:13:38;;;;;;;2.85;0.80;;;14.40;99.90;;;;;;6214678;23;20345;-78
2021/06/05 04:16:05;;;;;;;0.95;0.95;;;14.40;99.90;;;;;;6214656;23;20001;-77
2021/06/05 04:18:37;;;;;;;1.35;0.90;;;14.30;99.90;;;;;;6214296;23;20003;-77
2021/06/05 04:21:05;;;;;;;1.42;0.88;;;14.30;99.90;;;;;;6213128;23;20473;-77
2021/06/05 04:23:31;;;;;;;6.07;1.20;;;14.30;99.90;;;;;;6213947;23;20028;-78
2021/06/05 04:25:57;;;;;;;2.47;0.70;;;14.40;99.90;;;;;;6214145;23;19997;-78
2021/06/05 04:28:25;;;;;;;4.78;1.23;;;14.30;99.90;;;;;;6214982;23;20498;-77
2021/06/05 04:30:51;;;;;;;0.85;0.85;;;14.40;99.90;;;;;;6214267;23;20451;-77
2021/06/05 04:33:19;;;;;;;0.80;0.80;;;14.40;99.90;;;;;;6212628;23;20083;-77
2021/06/05 04:35:46;;;;;;;2.08;0.90;;;14.40;99.90;;;;;;6214380;23;20472;-77
2021/06/05 04:38:12;;;;;;;2.05;0.98;;;14.40;99.90;;;;;;6212361;23;20070;-78
2021/06/05 04:40:40;;;;;;;2.35;1.00;;;14.30;99.90;;;;;;6212572;23;20060;-78
2021/06/05 04:43:07;;;;;;;0.80;0.73;;;14.30;99.90;;;;;;6214021;23;19999;-77
2021/06/05 04:45:34;;;;;;;0.82;0.82;;;14.30;99.90;;;;;;6214434;23;20326;-78
2021/06/05 04:48:00;;;;;;;1.25;1.08;;;14.40;99.90;;;;;;6214418;23;20024;-77
2021/06/05 04:50:30;;;;;;;1.92;0.82;;;14.40;99.90;;;;;;6214437;23;20366;-78
2021/06/05 04:52:56;;;;;;;1.50;1.00;;;14.40;99.90;;;;;;6214459;23;19997;-78
2021/06/05 04:55:22;;;;;;;2.97;1.58;;;14.40;99.90;;;;;;6213300;23;20000;-77
2021/06/05 04:57:52;;;;;;;2.05;1.35;;;14.40;99.90;;;;;;6214601;23;20338;-78
2021/06/05 05:00:25;;;;;;;1.10;1.02;;;14.40;99.90;;;;;;6214532;23;19996;-77
2021/06/05 05:02:51;;;;;;;3.42;1.20;;;14.50;99.90;;;;;;6213570;23;20004;-78
2021/06/05 05:05:17;;;;;;;3.47;1.10;;;14.50;99.90;;;;;;6213060;23;19997;-78
2021/06/05 05:07:46;;;;;;;1.92;1.20;;;14.60;99.90;;;;;;6213124;23;20020;-77
2021/06/05 05:10:13;;;;;;;2.80;1.40;;;14.60;99.90;;;;;;6211118;23;20051;-77
2021/06/05 05:12:39;;;;;;;5.10;1.65;;;14.60;99.90;;;;;;6213115;23;19997;-77
2021/06/05 05:15:06;;;;;;;2.92;1.40;;;14.60;99.90;;;;;;6212744;23;20070;-77
2021/06/05 05:17:33;;;;;;;1.58;1.48;;;14.50;99.90;;;;;;6213443;23;20066;-78
2021/06/05 05:20:01;;;;;;;2.30;1.60;;;14.40;99.90;;;;;;6214010;23;20063;-78
2021/06/05 05:22:26;;;;;;;1.67;1.15;;;14.50;99.90;;;;;;6211179;23;20028;-78
2021/06/05 05:24:52;;;;;;;1.30;1.20;;;14.60;99.90;;;;;;6214652;23;20059;-78
2021/06/05 05:27:18;;;;;;;4.80;1.80;;;14.60;99.90;;;;;;6215007;23;20024;-78
2021/06/05 05:29:44;;;;;;;1.88;1.77;;;14.60;99.90;;;;;;6215152;23;20446;-78
2021/06/05 05:32:10;;;;;;;1.08;1.08;;;14.60;99.90;;;;;;6214610;23;20000;-78
2021/06/05 05:34:35;;;;;;;1.17;1.00;;;14.70;99.90;;;;;;6215052;23;20004;-78
2021/06/05 05:37:01;;;;;;;2.75;0.95;;;14.70;99.90;;;;;;6214822;23;19996;-78
2021/06/05 05:39:27;;;;;;;0.93;0.93;;;14.70;99.90;;;;;;6214752;23;19997;-78
2021/06/05 05:41:53;;;;;;;1.92;0.85;;;14.70;99.90;;;;;;6214799;23;20312;-78
2021/06/05 05:44:20;;;;;;;0.95;0.95;;;14.70;99.90;;;;;;6214697;23;19997;-78
2021/06/05 05:46:46;;;;;;;2.05;1.10;;;14.80;99.90;;;;;;6214967;23;20458;-77
2021/06/05 05:49:12;;;;;;;0.77;0.77;;;14.80;99.90;;;;;;6213152;23;20004;-77
2021/06/05 05:51:38;;;;;;;1.02;0.93;;;14.80;99.90;;;;;;6214332;23;20016;-78
2021/06/05 05:54:04;;;;;;;0.80;0.80;;;14.80;99.90;;;;;;6214733;23;20349;-77
2021/06/05 05:56:33;;;;;;;1.15;1.00;;;14.80;99.90;;;;;;6214897;23;20031;-78
2021/06/05 05:59:00;;;;;;;0.70;0.70;;;14.70;99.90;;;;;;6214674;23;20004;-77
2021/06/05 06:01:26;;;;;;;0.77;0.40;;;14.60;99.90;;;;;;6213434;23;20084;-78
2021/06/05 06:03:55;;;;;;;0.80;0.60;;;14.30;99.90;;;;;;6214478;23;20335;-77
2021/06/05 06:06:23;;;;;;;0.88;0.70;;;14.30;99.90;;;;;;6213134;23;20004;-77
2021/06/05 06:08:48;;;;;;;1.58;0.73;;;14.40;99.90;;;;;;6214484;23;19993;-77
2021/06/05 06:11:15;;;;;;;1.75;0.60;;;14.40;99.90;;;;;;6212677;23;20067;-77
2021/06/05 06:13:42;;;;;;;0.70;0.70;;;14.60;99.90;;;;;;6214280;23;20334;-77
2021/06/05 06:16:09;;;;;;;0.77;0.60;;;14.70;99.90;;;;;;6214368;23;19996;-78
2021/06/05 06:18:36;;;;;;;0.85;0.85;;;14.80;99.90;;;;;;6214676;23;20082;-77
2021/06/05 06:21:06;;;;;;;1.02;0.80;;;14.90;99.90;;;;;;6214152;23;20557;-77
2021/06/05 06:23:35;;;;;;;1.95;1.67;;;14.90;99.90;;;;;;6216189;23;19997;-77
2021/06/05 06:26:03;;;;;;;1.85;1.75;;;15.00;99.90;;;;;;6215882;23;19996;-77
2021/06/05 06:28:34;;;;;;;1.92;1.73;;;15.20;99.90;;;;;;6213702;23;20406;-78
2021/06/05 06:31:01;;;;;;;1.80;1.70;;;15.30;99.90;;;;;;6215689;23;20339;-77
2021/06/05 06:33:28;;;;;;;2.20;1.55;;;15.20;99.90;;;;;;6215659;23;20401;-78
2021/06/05 06:35:54;;;;;;;1.77;1.67;;;15.20;99.90;;;;;;6213616;23;20005;-78
2021/06/05 06:38:33;;;;;;;1.65;1.55;;;15.10;99.90;;;;;;6214967;23;20032;-77
2021/06/05 06:41:00;;;;;;;1.25;1.15;;;15.10;99.90;;;;;;6215156;23;20079;-77
2021/06/05 06:43:28;;;;;;;1.50;1.40;;;15.20;99.90;;;;;;6215022;23;20071;-77
2021/06/05 06:45:59;;;;;;;2.45;1.45;;;15.20;99.90;;;;;;6215154;23;20566;-78
2021/06/05 06:48:25;;;;;;;1.73;1.63;;;15.00;99.90;;;;;;6215040;23;19997;-78
2021/06/05 06:50:51;;;;;;;1.75;1.60;;;15.10;99.90;;;;;;6215123;23;20468;-78
2021/06/05 06:53:17;;;;;;;2.90;1.73;;;15.50;99.90;;;;;;6215831;23;20004;-78
2021/06/05 06:55:43;;;;;;;2.25;2.13;;;15.60;99.90;;;;;;6214659;23;20028;-78
2021/06/05 06:58:10;;;;;;;2.20;2.00;;;15.70;99.90;;;;;;6214638;23;19997;-78
2021/06/05 07:00:39;;;;;;;2.28;1.80;;;15.90;99.90;;;;;;6215518;23;20001;-78
2021/06/05 07:03:09;;;;;;;3.53;1.58;;;15.50;99.90;;;;;;6212684;23;19993;-78
2021/06/05 07:05:37;;;;;;;2.10;1.77;;;15.30;99.90;;;;;;6209425;23;20036;-78
2021/06/05 07:08:18;;;;;;;1.70;1.58;;;15.30;99.90;;;;;;6214058;23;19993;-78
2021/06/05 07:10:46;;;;;;;2.10;2.00;;;15.50;99.90;;;;;;6214638;23;20449;-78
2021/06/05 07:13:12;;;;;;;2.85;1.77;;;15.60;99.90;;;;;;6214444;23;20004;-78
2021/06/05 07:15:38;;;;;;;2.40;1.80;;;15.70;99.90;;;;;;6213637;23;20462;-78
2021/06/05 07:18:06;;;;;;;1.70;1.60;;;15.80;99.90;;;;;;6213301;23;20398;-78
2021/06/05 07:20:33;;;;;;;1.75;1.65;;;16.00;99.90;;;;;;6212823;23;20442;-78
2021/06/05 07:22:59;;;;;;;1.90;1.80;;;16.10;99.90;;;;;;6213876;23;19993;-78
2021/06/05 07:25:27;;;;;;;2.40;1.90;;;15.70;99.90;;;;;;6213044;23;20004;-78
2021/06/05 07:27:54;;;;;;;1.95;1.85;;;15.80;99.90;;;;;;6213457;23;19992;-78
2021/06/05 07:30:21;;;;;;;1.58;1.48;;;15.80;99.90;;;;;;6214509;23;19997;-78
2021/06/05 07:32:47;;;;;;;3.40;1.75;;;15.70;99.90;;;;;;6214452;23;20023;-78
2021/06/05 07:35:13;;;;;;;1.95;1.75;;;15.90;99.90;;;;;;6214350;23;19997;-78
2021/06/05 07:37:38;;;;;;;5.60;2.10;;;16.10;99.90;;;;;;6214545;23;19997;-78
2021/06/05 07:40:08;;;;;;;1.85;1.73;;;16.20;99.90;;;;;;6214318;23;20003;-78
2021/06/05 07:42:36;;;;;;;1.90;1.80;;;16.50;99.90;;;;;;6214627;23;20001;-78
2021/06/05 07:45:05;;;;;;;2.25;2.05;;;16.70;99.90;;;;;;6214063;23;19997;-78
2021/06/05 07:47:31;;;;;;;3.63;2.58;;;17.00;99.90;;;;;;6214610;23;20497;-78
2021/06/05 07:49:57;;;;;;;1.92;1.83;;;17.50;99.90;;;;;;6213317;23;20004;-78
2021/06/05 07:52:24;;;;;;;1.80;1.70;;;18.20;99.90;;;;;;6214514;23;20009;-78
2021/06/05 07:54:55;;;;;;;2.95;2.22;;;18.70;99.90;;;;;;6213586;23;20080;-78
2021/06/05 07:57:23;;;;;;;2.08;1.98;;;18.40;99.90;;;;;;6214317;23;19996;-78
2021/06/05 07:59:49;;;;;;;3.03;2.17;;;18.40;99.90;;;;;;6212299;23;20005;-78
2021/06/05 08:02:16;;;;;;;3.50;2.33;;;18.30;99.90;;;;;;6213465;23;19997;-78
2021/06/05 08:04:42;;;;;;;3.55;1.92;;;18.40;99.90;;;;;;6213884;23;20524;-78
2021/06/05 08:07:08;;;;;;;2.63;2.42;;;18.30;99.90;;;;;;6213632;23;20050;-79
2021/06/05 08:09:34;;;;;;;2.08;1.80;;;18.10;99.90;;;;;;6213968;23;20072;-79
2021/06/05 08:12:01;;;;;;;2.50;2.30;;;17.80;99.90;;;;;;6213863;23;20435;-79
2021/06/05 08:14:27;;;;;;;2.85;2.60;;;17.60;99.90;;;;;;6214718;23;20000;-78
2021/06/05 08:16:52;;;;;;;3.20;2.88;;;17.30;99.90;;;;;;6213613;23;20023;-78
2021/06/05 08:19:22;;;;;;;2.55;2.33;;;17.20;99.90;;;;;;6214643;23;20023;-79
2021/06/05 08:21:49;;;;;;;3.05;2.85;;;17.10;99.90;;;;;;6214051;23;19997;-79
2021/06/05 08:24:17;;;;;;;4.95;2.75;;;17.00;99.90;;;;;;6213865;23;20016;-83
2021/06/05 08:26:43;;;;;;;3.90;2.25;;;16.90;99.90;;;;;;6214478;23;20000;-79
2021/06/05 08:29:10;;;;;;;3.03;2.60;;;16.80;99.90;;;;;;6215233;23;20407;-78
2021/06/05 08:31:37;;;;;;;2.67;2.38;;;16.90;99.90;;;;;;6214622;23;20300;-78
2021/06/05 08:34:03;;;;;;;5.43;2.60;;;17.00;99.90;;;;;;6214172;23;20007;-80
2021/06/05 08:36:30;;;;;;;2.00;1.90;;;17.00;99.90;;;;;;6213679;23;20442;-80
2021/06/05 08:38:57;;;;;;;2.78;1.90;;;17.00;99.90;;;;;;6214982;23;20063;-79
2021/06/05 08:41:37;;;;;;;4.65;3.38;;;16.70;99.90;;;;;;6215422;23;20001;-79
2021/06/05 08:44:08;;;;;;;;;;;16.70;99.90;;;;;;6216058;23;20060;-78
2021/06/05 08:46:44;;;;;;;2.92;2.72;;;16.60;99.90;;;;;;6213595;23;19908;-79
2021/06/05 08:49:20;;;;;;;3.78;2.63;;;16.70;99.90;;;;;;6213888;23;20079;-78
2021/06/05 08:51:55;;;;;;;2.30;2.10;;;16.60;99.90;;;;;;6214961;23;20090;-80
2021/06/05 08:54:43;;;;;;;2.95;2.75;;;16.40;99.90;;;;;;6214997;23;20376;-78
2021/06/05 08:57:31;;;;;;;2.58;2.38;;;16.70;99.90;;;;;;6215015;23;20472;-78
2021/06/05 09:00:04;;;;;;;2.67;2.47;;;16.80;99.90;;;;;;6216640;23;20004;-78
2021/06/05 09:02:31;;;;;;;3.30;2.60;;;16.90;99.90;;;;;;6216287;23;20084;-78
2021/06/05 09:04:57;;;;;;;4.60;3.45;;;17.10;99.90;;;;;;6216413;23;20003;-78
2021/06/05 09:07:24;;;;;;;3.45;2.90;;;17.30;99.90;;;;;;6216391;23;20072;-78
2021/06/05 09:09:52;;;;;;;2.55;2.35;;;17.20;99.90;;;;;;6216680;23;19997;-78
2021/06/05 09:12:20;;;;;;;7.55;2.90;;;17.10;99.90;;;;;;6217411;23;20372;-78
2021/06/05 09:14:47;;;;;;;3.28;2.97;;;17.30;99.90;;;;;;6216202;23;20075;-78
2021/06/05 09:17:44;;;;;;;4.00;2.20;;;17.60;99.90;;;;;;6216499;23;20001;-78
2021/06/05 09:20:18;;;;;;;2.20;2.08;;;17.70;99.90;;;;;;6214844;23;20008;-78
2021/06/05 09:22:45;;;;;;;4.22;2.40;;;18.00;99.90;;;;;;6216587;23;19997;-78
2021/06/05 09:25:32;;;;;;;2.53;2.28;;;18.20;99.90;;;;;;6216312;23;20019;-78
2021/06/05 09:28:24;;;;;;;4.35;2.40;;;18.30;99.90;;;;;;6216462;23;20342;-78
2021/06/05 09:30:53;;;;;;;6.22;3.38;;;18.20;99.90;;;;;;6216012;23;20000;-78
2021/06/05 09:33:33;;;;;;;4.55;3.50;;;17.90;99.90;;;;;;6216502;23;20001;-78
2021/06/05 09:36:18;;;;;;;4.20;3.30;;;17.70;99.90;;;;;;6216464;23;20338;-78
2021/06/05 09:39:05;;;;;;;3.47;2.63;;;17.50;99.90;;;;;;6216456;23;20000;-78
2021/06/05 09:41:36;;;;;;;10.52;3.70;;;17.20;99.90;;;;;;6216165;23;20001;-78
2021/06/05 09:44:21;;;;;;;4.30;2.95;;;17.10;99.90;;;;;;6215589;23;19996;-78
2021/06/05 09:47:01;;;;;;;5.18;3.25;;;17.10;99.90;;;;;;6216280;23;20024;-78
2021/06/05 09:49:29;;;;;;;4.80;3.78;;;17.20;99.90;;;;;;6216211;23;20435;-78
2021/06/05 09:52:04;;;;;;;3.60;3.13;;;17.20;99.90;;;;;;6215949;23;20019;-78
2021/06/05 09:54:32;;;;;;;5.45;3.10;;;17.20;99.90;;;;;;6214617;23;20001;-77
2021/06/05 09:57:47;;;;;;;3.15;2.92;;;17.30;99.90;;;;;;6216144;23;20001;-78
2021/06/05 10:00:32;;;;;;;4.05;2.78;;;17.20;99.90;;;;;;6094415;23;20006;-78
2021/06/05 10:03:24;;;;;;;4.90;2.85;;;17.40;99.90;;;;;;6094947;23;20006;-78
2021/06/05 10:05:51;;;;;;;4.03;2.60;;;16.90;99.90;;;;;;6095059;23;20444;-78
2021/06/05 10:08:26;;;;;;;2.92;2.22;;;17.40;99.90;;;;;;6094543;23;20417;-78
2021/06/05 10:11:02;;;;;;;2.08;1.98;;;17.60;99.90;;;;;;6070716;23;20006;-78
2021/06/05 10:13:33;;;;;;;2.38;2.05;;;17.70;99.90;;;;;;6094378;23;20478;-78
2021/06/05 10:16:05;;;;;;;5.05;2.10;;;18.10;99.90;;;;;;6070081;23;20010;-78
2021/06/05 10:18:44;;;;;;;4.57;2.38;;;18.70;99.90;;;;;;6085583;23;20014;-78
2021/06/05 10:21:36;;;;;;;2.63;2.42;;;18.70;99.90;;;;;;6092200;23;20006;-78
2021/06/05 10:24:25;;;;;;;2.30;2.10;;;19.00;99.90;;;;;;6092128;23;20005;-78
2021/06/05 10:26:52;;;;;;;2.30;2.10;;;18.50;99.90;;;;;;6093733;23;20507;-78
2021/06/05 10:29:34;;;;;;;2.17;1.98;;;18.00;99.90;;;;;;6092385;23;20029;-78
2021/06/05 10:32:05;;;;;;;2.65;1.83;;;18.30;99.90;;;;;;6092399;23;20409;-78
2021/06/05 10:34:41;;;;;;;2.55;2.22;;;18.50;99.90;;;;;;6093231;23;20081;-78
2021/06/05 10:37:15;;;;;;;2.70;2.03;;;18.10;99.90;;;;;;6214346;23;20020;-78
2021/06/05 10:39:44;;;;;;;1.63;1.52;;;18.10;99.90;;;;;;6214386;23;20443;-78
2021/06/05 10:42:15;;;;;;;1.77;1.67;;;18.00;99.90;;;;;;6213798;23;20000;-78
2021/06/05 10:44:41;;;;;;;4.07;2.10;;;17.30;99.90;;;;;;6215520;23;20434;-78
2021/06/05 10:47:17;;;;;;;2.92;1.70;;;17.30;99.90;;;;;;6215589;23;20025;-78
2021/06/05 10:49:55;;;;;;;2.58;2.30;;;17.50;99.90;;;;;;6209540;23;19997;-78
2021/06/05 10:52:39;;;;;;;5.30;2.15;;;17.80;99.90;;;;;;6213927;23;20008;-78
2021/06/05 10:55:25;;;;;;;3.50;2.22;;;17.90;99.90;;;;;;6213707;23;20004;-78
2021/06/05 10:58:16;;;;;;;5.28;2.20;;;18.20;99.90;;;;;;6213254;23;20001;-78
2021/06/05 11:00:42;;;;;;;2.05;1.80;;;18.30;99.90;;;;;;6213858;23;20032;-78
2021/06/05 11:03:26;;;;;;;3.13;1.77;;;18.50;99.90;;;;;;6213974;23;20084;-78
2021/06/05 11:06:18;;;;;;;1.88;1.77;;;18.70;99.90;;;;;;6213405;23;20001;-78
2021/06/05 11:09:00;;;;;;;2.10;1.83;;;19.20;99.90;;;;;;6214161;23;19996;-78
2021/06/05 11:11:34;;;;;;;2.30;2.10;;;19.50;99.90;;;;;;6213383;23;20331;-78
2021/06/05 11:14:03;;;;;;;1.77;1.67;;;19.90;99.90;;;;;;6211404;23;20475;-76
2021/06/05 11:16:59;;;;;;;3.53;1.58;;;19.90;99.90;;;;;;6213446;23;20004;-76
2021/06/05 11:19:31;;;;;;;2.88;2.10;;;20.10;99.90;;;;;;6090416;23;20010;-77
2021/06/05 11:22:11;;;;;;;1.77;1.67;;;20.60;99.90;;;;;;6091189;23;20138;-79
2021/06/05 11:24:39;;;;;;;2.40;1.98;;;21.90;99.90;;;;;;6093337;23;20130;-79
2021/06/05 11:27:32;;;;;;;3.60;1.70;;;23.30;99.90;;;;;;6092258;23;20063;-79
2021/06/05 11:29:59;;;;;;;3.33;1.70;;;23.80;99.90;;;;;;6092653;23;19999;-79
2021/06/05 11:32:43;;;;;;;3.70;1.95;;;23.70;99.90;;;;;;6093741;23;20029;-79
2021/06/05 11:35:28;;;;;;;1.63;1.40;;;23.40;99.90;;;;;;6094001;23;20085;-79
2021/06/05 11:37:56;;;;;;;3.42;1.60;;;23.60;99.90;;;;;;6092421;23;20010;-79
2021/06/05 11:41:11;;;;;;;1.63;1.48;;;24.60;99.90;;;;;;6093332;23;20165;-79
2021/06/05 11:43:47;;;;;;;1.63;1.52;;;25.30;99.90;;;;;;6006817;23;20000;-79
2021/06/05 11:46:24;;;;;;;2.75;1.40;;;25.00;99.90;;;;;;6007913;23;20011;-79
2021/06/05 11:49:01;;;;;;;2.75;1.10;;;26.70;99.90;;;;;;6006703;23;20003;-79
2021/06/05 11:51:41;;;;;;;1.65;1.48;;;23.60;99.90;;;;;;5982807;23;20035;-79
2021/06/05 11:54:15;;;;;;;1.20;1.13;;;22.10;99.90;;;;;;6007205;23;20170;-80
2021/06/05 11:56:52;;;;;;;1.80;1.00;;;21.50;99.90;;;;;;6044705;23;20035;-80
2021/06/05 11:59:34;;;;;;;1.40;1.30;;;21.20;99.90;;;;;;6064239;23;20003;-80
2021/06/05 12:02:23;;;;;;;1.38;1.27;;;20.60;99.90;;;;;;6064230;23;20029;-80
2021/06/05 12:05:01;;;;;;;1.50;1.30;;;20.40;99.90;;;;;;6064385;23;20007;-81
2021/06/05 12:07:35;;;;;;;1.70;1.27;;;20.10;99.90;;;;;;6064111;23;20390;-81
2021/06/05 12:10:00;;;;;;;1.83;1.35;;;20.20;99.90;;;;;;6063651;23;20007;-81
2021/06/05 12:12:35;;;;;;;2.17;1.05;;;20.20;99.90;;;;;;6040552;23;20010;-81
2021/06/05 12:15:21;;;;;;;1.92;1.48;;;20.20;99.90;;;;;;6039843;23;20006;-81
2021/06/05 12:18:07;;;;;;;1.30;1.20;;;19.90;99.90;;;;;;6164746;23;20007;-82
2021/06/05 12:21:03;;;;;;;1.52;1.42;;;19.90;99.90;;;;;;6213932;23;20392;-81
2021/06/05 12:23:39;;;;;;;2.40;1.35;;;20.10;99.90;;;;;;6213922;23;20442;-81
2021/06/05 12:26:08;;;;;;;1.20;1.10;;;20.40;99.90;;;;;;6213540;23;20039;-78
2021/06/05 12:28:40;;;;;;;2.38;1.45;;;20.70;99.90;;;;;;6214737;23;20422;-78
2021/06/05 12:31:34;;;;;;;2.28;1.55;;;20.90;99.90;;;;;;6208891;23;20050;-78
2021/06/05 12:34:07;;;;;;;1.50;1.40;;;20.60;99.90;;;;;;6201583;23;20099;-78
2021/06/05 12:36:40;;;;;;;2.22;1.50;;;21.10;99.90;;;;;;6212893;23;20116;-78
2021/06/05 12:39:41;;;;;;;1.45;1.35;;;21.90;99.90;;;;;;6213163;23;20027;-78
2021/06/05 12:42:09;;;;;;;2.28;1.30;;;21.90;99.90;;;;;;6214053;23;19997;-78
2021/06/05 12:44:37;;;;;;;2.67;1.52;;;22.40;99.90;;;;;;6214428;23;20000;-78
2021/06/05 12:47:11;;;;;;;2.28;1.77;;;22.70;99.90;;;;;;6213931;23;20001;-78
2021/06/05 12:49:39;;;;;;;1.70;1.60;;;23.70;99.90;;;;;;6214663;23;20020;-78
2021/06/05 12:52:14;;;;;;;1.30;1.20;;;30.10;99.90;;;;;;6214168;23;20355;-78
2021/06/05 12:54:46;;;;;;;1.20;1.10;;;27.90;95.20;;;;;;6212857;23;20078;-78
2021/06/05 12:57:46;;;;;;;2.25;1.20;;;25.60;99.40;;;;;;6214655;23;20420;-78
2021/06/05 13:00:21;;;;;;;;;;;28.40;93.90;;;;;;6093770;23;20002;-78
2021/06/05 13:02:48;;;;;;;2.30;1.30;;;28.80;91.60;;;;;;6093509;23;19931;-78
2021/06/05 13:05:17;;;;;;;1.15;1.10;;;28.00;91.50;;;;;;6093124;23;19999;-78
2021/06/05 13:07:44;;;;;;;2.00;1.13;;;26.90;99.90;;;;;;6093215;23;20006;-78
2021/06/05 13:10:36;;;;;;;1.95;1.33;;;25.80;99.90;;;;;;6093422;23;20007;-78